Aviation Digital Data Service (ADDS)

Output produced by METARs form (1739 UTC 27 May 2017)
found at http://www.aviationweather.gov/adds/metars/
 
OJAQ 271600Z 16004KT CAVOK 36/04 Q1006
TAF OJAQ 271100Z 2712/2818 22008KT 6000 NSC 
     BECMG 2720/2722 36010KT 
     PROB30 2810/2815 4000 DU
       
OJAM 271700Z 29005KT 5000 HZ NSC 27/04 Q1013 NOSIG
TAF OJAM 271100Z 2712/2818 25006KT 5000 HZ NSC 
     TEMPO 2802/2806 VRB02KT 3000 FU 
     PROB30 2810/2815 3000 DU
       
OJAI 271700Z 22005KT 8000 NSC 27/00 Q1013 NOSIG
TAF OJAI 271100Z 2712/2818 24006KT 7000 NSC 
     TEMPO 2802/2806 VRB02KT 5000 HZ 
     PROB30 2810/2815 3000 DU
       
OJAM 271700Z 29005KT 5000 HZ NSC 27/04 Q1013 NOSIG
TAF OJAM 271100Z 2712/2818 25006KT 5000 HZ NSC 
     TEMPO 2802/2806 VRB02KT 3000 FU 
     PROB30 2810/2815 3000 DU
       
OJAQ 271600Z 16004KT CAVOK 36/04 Q1006
TAF OJAQ 271100Z 2712/2818 22008KT 6000 NSC 
     BECMG 2720/2722 36010KT 
     PROB30 2810/2815 4000 DU
       
OJAI 271700Z 22005KT 8000 NSC 27/00 Q1013 NOSIG
TAF OJAI 271100Z 2712/2818 24006KT 7000 NSC 
     TEMPO 2802/2806 VRB02KT 5000 HZ 
     PROB30 2810/2815 3000 DU